Time;durP1;ratioP1;P1;durP2;ratioP2;P2;SDS_P1;SDS_P2;PMS_P1;PMS_P2;Temp;Humidity;BMP_temperature;BMP_pressure;BME280_temperature;BME280_humidity;BME280_pressure;Samples;Min_cycle;Max_cycle;Signal;HPM_P1;HPM_P2
2022/05/12 00:01:20;;;;;;;2.63;2.42;;;21.00;63.00;;;;;;5049534;28;20194;-70
2022/05/12 00:03:46;;;;;;;2.80;2.60;;;21.00;62.90;;;;;;5049446;28;20205;-70
2022/05/12 00:06:12;;;;;;;2.40;2.30;;;21.00;62.90;;;;;;5033896;28;20599;-70
2022/05/12 00:08:37;;;;;;;2.90;2.70;;;20.90;62.70;;;;;;5069778;28;20711;-70
2022/05/12 00:11:04;;;;;;;2.83;2.63;;;20.90;62.70;;;;;;5050575;28;20186;-70
2022/05/12 00:13:30;;;;;;;3.13;2.92;;;21.00;62.80;;;;;;5032985;28;20284;-70
2022/05/12 00:15:58;;;;;;;2.97;2.63;;;20.90;62.70;;;;;;5050210;28;20186;-70
2022/05/12 00:18:25;;;;;;;3.20;3.00;;;20.90;62.60;;;;;;5033890;28;20198;-70
2022/05/12 00:20:52;;;;;;;2.88;2.67;;;21.00;62.70;;;;;;5050054;28;20217;-70
2022/05/12 00:23:20;;;;;;;5.05;2.80;;;21.00;62.70;;;;;;5032698;28;20280;-70
2022/05/12 00:25:49;;;;;;;2.47;2.33;;;20.90;62.70;;;;;;5049945;28;20185;-70
2022/05/12 00:28:18;;;;;;;3.33;3.03;;;20.90;62.60;;;;;;5033050;28;20182;-70
2022/05/12 00:30:47;;;;;;;2.88;2.67;;;21.00;62.60;;;;;;5033169;28;20186;-71
2022/05/12 00:33:16;;;;;;;2.80;2.55;;;20.90;62.60;;;;;;5032498;28;20183;-71
2022/05/12 00:35:44;;;;;;;3.33;3.03;;;20.90;62.60;;;;;;5049624;28;20652;-70
2022/05/12 00:38:11;;;;;;;3.22;2.92;;;20.90;62.60;;;;;;5049428;28;20187;-70
2022/05/12 00:40:41;;;;;;;2.83;2.63;;;20.90;62.60;;;;;;5051727;28;20206;-70
2022/05/12 00:43:35;;;;;;;2.97;2.70;;;20.90;62.60;;;;;;5052977;28;20183;-70
2022/05/12 00:46:07;;;;;;;3.22;2.97;;;20.90;62.50;;;;;;5054669;28;20205;-70
2022/05/12 00:48:33;;;;;;;3.42;3.00;;;20.90;62.40;;;;;;5036735;28;20190;-70
2022/05/12 00:51:01;;;;;;;2.58;2.47;;;20.90;62.50;;;;;;5053266;28;20273;-71
2022/05/12 00:53:30;;;;;;;2.95;2.75;;;20.90;62.40;;;;;;5036124;28;20207;-70
2022/05/12 00:55:58;;;;;;;2.72;2.50;;;20.90;62.40;;;;;;5053058;28;20219;-71
2022/05/12 00:58:25;;;;;;;3.05;2.85;;;20.90;62.50;;;;;;5036764;28;20214;-71
2022/05/12 01:00:51;;;;;;;2.88;2.67;;;20.90;62.50;;;;;;5036422;28;20214;-71
2022/05/12 01:03:25;;;;;;;2.92;2.72;;;20.90;62.30;;;;;;5052422;28;20190;-70
2022/05/12 01:05:52;;;;;;;3.03;2.83;;;20.90;62.60;;;;;;5036272;28;20198;-70
2022/05/12 01:08:20;;;;;;;2.90;2.70;;;20.90;62.50;;;;;;5037884;28;20258;-70
2022/05/12 01:10:52;;;;;;;2.63;2.42;;;20.90;62.30;;;;;;5032915;28;20223;-70
2022/05/12 01:13:19;;;;;;;2.75;2.55;;;20.90;62.40;;;;;;5032529;28;20569;-70
2022/05/12 01:16:51;;;;;;;3.13;2.92;;;20.90;62.50;;;;;;5016427;28;20294;-70
2022/05/12 01:19:22;;;;;;;2.92;2.63;;;20.90;62.50;;;;;;5032552;28;20223;-71
2022/05/12 01:21:50;;;;;;;3.15;2.58;;;20.90;62.40;;;;;;5032946;28;20187;-70
2022/05/12 01:24:19;;;;;;;3.92;3.20;;;20.90;62.40;;;;;;5032296;28;20291;-70
2022/05/12 01:26:46;;;;;;;3.15;2.95;;;20.90;62.50;;;;;;5016349;28;20193;-70
2022/05/12 01:29:12;;;;;;;2.90;2.70;;;20.90;62.40;;;;;;5016204;28;20183;-70
2022/05/12 01:31:39;;;;;;;3.30;3.00;;;20.90;62.40;;;;;;5032674;28;20230;-70
2022/05/12 01:34:08;;;;;;;2.78;2.55;;;20.90;62.40;;;;;;5031990;28;20210;-70
2022/05/12 01:36:36;;;;;;;3.28;2.63;;;20.90;62.40;;;;;;5032608;28;20186;-70
2022/05/12 01:39:04;;;;;;;2.90;2.70;;;20.90;62.50;;;;;;5031941;28;20194;-70
2022/05/12 01:41:30;;;;;;;2.90;2.70;;;20.90;62.50;;;;;;5032458;28;20191;-70
2022/05/12 01:43:56;;;;;;;3.22;2.72;;;20.90;62.40;;;;;;5033089;28;20202;-70
2022/05/12 01:46:22;;;;;;;2.78;2.53;;;20.90;62.40;;;;;;5032551;28;20182;-70
2022/05/12 01:48:48;;;;;;;2.72;2.53;;;20.90;62.50;;;;;;5032301;28;20234;-70
2022/05/12 01:51:14;;;;;;;4.70;2.58;;;20.90;62.50;;;;;;5014432;28;20192;-70
2022/05/12 01:53:40;;;;;;;2.70;2.50;;;20.90;62.40;;;;;;5031517;28;20206;-70
2022/05/12 01:56:07;;;;;;;2.70;2.50;;;20.90;62.40;;;;;;5032253;28;20234;-70
2022/05/12 01:58:34;;;;;;;2.85;2.65;;;20.90;62.40;;;;;;5032568;28;20557;-70
2022/05/12 02:01:00;;;;;;;2.75;2.55;;;20.90;62.40;;;;;;5039369;28;20207;-70
2022/05/12 02:03:26;;;;;;;2.90;2.70;;;20.90;62.40;;;;;;5031727;28;20211;-70
2022/05/12 02:05:52;;;;;;;2.60;2.40;;;20.80;62.20;;;;;;5032285;28;20186;-70
2022/05/12 02:08:19;;;;;;;2.70;2.50;;;20.90;62.40;;;;;;5015884;28;20183;-70
2022/05/12 02:10:50;;;;;;;2.97;2.78;;;20.80;62.30;;;;;;5037098;28;20253;-71
2022/05/12 02:13:20;;;;;;;3.15;2.90;;;20.80;62.20;;;;;;5020867;28;20243;-70
2022/05/12 02:15:46;;;;;;;3.25;2.90;;;20.80;62.20;;;;;;5048504;28;20191;-70
2022/05/12 02:18:12;;;;;;;2.60;2.40;;;20.80;62.30;;;;;;5031690;28;20195;-70
2022/05/12 02:20:38;;;;;;;2.72;2.53;;;20.80;62.20;;;;;;5031774;28;20219;-70
2022/05/12 02:23:04;;;;;;;2.80;2.60;;;20.80;62.20;;;;;;5031407;28;20198;-70
2022/05/12 02:25:30;;;;;;;2.60;2.40;;;20.80;62.20;;;;;;5031613;28;20414;-70
2022/05/12 02:27:56;;;;;;;2.85;2.65;;;20.80;62.10;;;;;;5031558;28;20183;-70
2022/05/12 02:30:27;;;;;;;2.70;2.50;;;20.80;62.30;;;;;;5031544;28;20175;-70
2022/05/12 02:32:54;;;;;;;2.53;2.33;;;20.80;62.30;;;;;;5031305;28;20191;-70
2022/05/12 02:35:21;;;;;;;2.83;2.63;;;20.80;62.20;;;;;;5032863;28;20290;-70
2022/05/12 02:37:47;;;;;;;2.53;2.33;;;20.80;62.30;;;;;;5047968;28;20680;-70
2022/05/12 02:40:19;;;;;;;2.30;2.20;;;20.80;62.20;;;;;;5031246;28;20291;-70
2022/05/12 02:42:46;;;;;;;3.05;2.80;;;20.80;62.20;;;;;;5047840;28;20282;-70
2022/05/12 02:45:12;;;;;;;2.50;2.35;;;20.80;62.20;;;;;;5031353;28;20204;-70
2022/05/12 02:47:39;;;;;;;2.53;2.33;;;20.80;62.20;;;;;;5031176;28;20217;-70
2022/05/12 02:50:06;;;;;;;2.67;2.47;;;20.80;62.20;;;;;;5031204;28;20222;-70
2022/05/12 02:52:32;;;;;;;3.55;2.60;;;20.80;62.20;;;;;;5031904;28;20222;-70
2022/05/12 02:54:58;;;;;;;2.80;2.60;;;20.80;62.20;;;;;;5030948;28;20320;-70
2022/05/12 02:57:23;;;;;;;2.80;2.60;;;20.80;62.20;;;;;;5031304;28;20183;-71
2022/05/12 02:59:49;;;;;;;2.70;2.50;;;20.80;62.20;;;;;;5032135;28;20203;-70
2022/05/12 03:02:16;;;;;;;2.83;2.63;;;20.80;62.30;;;;;;5031717;28;20219;-71
2022/05/12 03:04:41;;;;;;;2.80;2.60;;;20.80;62.20;;;;;;5047032;28;20202;-70
2022/05/12 03:07:07;;;;;;;2.72;2.50;;;20.80;62.20;;;;;;5034139;28;20186;-70
2022/05/12 03:09:33;;;;;;;2.55;2.38;;;20.80;62.30;;;;;;5033527;28;20186;-70
2022/05/12 03:11:59;;;;;;;3.17;2.97;;;20.80;62.20;;;;;;5033930;28;20561;-70
2022/05/12 03:14:24;;;;;;;2.70;2.50;;;20.80;62.20;;;;;;5033556;28;20252;-70
2022/05/12 03:16:53;;;;;;;2.65;2.45;;;20.80;62.20;;;;;;5033872;28;20210;-70
2022/05/12 03:19:21;;;;;;;2.72;2.53;;;20.80;62.20;;;;;;5050462;28;20194;-70
2022/05/12 03:21:47;;;;;;;2.60;2.40;;;20.80;63.00;;;;;;5050350;28;20179;-70
2022/05/12 03:24:18;;;;;;;2.13;2.03;;;20.80;62.20;;;;;;5025498;28;20203;-70
2022/05/12 03:26:47;;;;;;;2.63;2.53;;;20.80;62.30;;;;;;5029894;28;20190;-70
2022/05/12 03:29:12;;;;;;;2.65;2.45;;;20.80;62.20;;;;;;5014304;28;20262;-70
2022/05/12 03:31:38;;;;;;;2.70;2.50;;;20.70;62.10;;;;;;5014092;28;20282;-70
2022/05/12 03:34:04;;;;;;;2.90;2.70;;;20.80;63.00;;;;;;5030126;28;20203;-69
2022/05/12 03:36:35;;;;;;;2.83;2.63;;;20.80;62.10;;;;;;5030400;28;20198;-69
2022/05/12 03:39:05;;;;;;;2.75;2.55;;;20.70;62.00;;;;;;5014189;28;20179;-69
2022/05/12 03:41:32;;;;;;;2.47;2.38;;;20.80;62.20;;;;;;5030390;28;20230;-69
2022/05/12 03:46:42;;;;;;;2.60;2.40;;;20.70;62.10;;;;;;5029672;28;20660;-69
2022/05/12 03:49:08;;;;;;;2.58;2.42;;;20.70;62.00;;;;;;5029456;28;20191;-70
2022/05/12 03:51:34;;;;;;;3.25;2.40;;;20.80;62.20;;;;;;5030213;28;20187;-69
2022/05/12 03:54:01;;;;;;;3.00;2.70;;;20.80;62.20;;;;;;5013213;28;20202;-70
2022/05/12 03:56:27;;;;;;;2.50;2.30;;;20.70;62.10;;;;;;5029940;28;20195;-70
2022/05/12 03:58:53;;;;;;;2.70;2.50;;;20.70;62.10;;;;;;5030086;28;20183;-70
2022/05/12 04:01:18;;;;;;;2.78;2.58;;;20.80;62.20;;;;;;5029513;28;20238;-70
2022/05/12 04:03:45;;;;;;;2.58;2.40;;;20.70;62.00;;;;;;5029110;28;20199;-71
2022/05/12 04:06:11;;;;;;;2.70;2.50;;;20.70;62.00;;;;;;5013118;28;20193;-70
2022/05/12 04:08:37;;;;;;;2.70;2.50;;;20.70;62.00;;;;;;5013473;28;20279;-70
2022/05/12 04:11:04;;;;;;;2.42;2.22;;;20.70;62.10;;;;;;5013245;28;20266;-70
2022/05/12 04:13:29;;;;;;;2.45;2.30;;;20.70;62.00;;;;;;5012933;28;20203;-72
2022/05/12 04:15:55;;;;;;;2.65;2.45;;;20.70;62.10;;;;;;5028999;28;20237;-72
2022/05/12 04:18:21;;;;;;;2.85;2.40;;;20.70;62.10;;;;;;5013624;28;20187;-73
2022/05/12 04:20:47;;;;;;;2.30;2.20;;;20.70;62.00;;;;;;5029589;28;20218;-73
2022/05/12 04:23:13;;;;;;;2.45;2.33;;;20.70;62.00;;;;;;5012610;28;20190;-72
2022/05/12 04:25:39;;;;;;;4.28;2.70;;;20.70;62.10;;;;;;5029217;28;20175;-72
2022/05/12 04:28:05;;;;;;;2.45;2.30;;;20.70;62.00;;;;;;5037925;28;20186;-72
2022/05/12 04:30:31;;;;;;;2.67;2.40;;;20.70;62.10;;;;;;5028518;28;20569;-72
2022/05/12 04:35:09;;;;;;;3.10;2.53;;;20.70;62.00;;;;;;5048909;28;20618;-73
2022/05/12 04:35:43;;;;;;;2.47;2.28;;;20.70;62.00;;;;;;5038925;28;20175;-72
2022/05/12 04:38:10;;;;;;;2.70;2.50;;;20.70;62.00;;;;;;5039642;28;20198;-72
2022/05/12 04:40:37;;;;;;;2.83;2.60;;;20.70;62.00;;;;;;5033032;28;20214;-72
2022/05/12 04:43:06;;;;;;;2.72;2.40;;;20.70;62.00;;;;;;5032498;28;20190;-72
2022/05/12 04:45:33;;;;;;;2.30;2.20;;;20.70;62.10;;;;;;5049927;28;20186;-73
2022/05/12 04:47:59;;;;;;;2.35;2.15;;;20.70;62.10;;;;;;5032338;28;20182;-73
2022/05/12 04:50:34;;;;;;;2.50;2.30;;;20.70;62.00;;;;;;5049423;28;20191;-73
2022/05/12 04:53:01;;;;;;;2.78;2.58;;;20.70;62.00;;;;;;5032666;28;20194;-74
2022/05/12 04:55:28;;;;;;;2.60;2.40;;;20.70;62.00;;;;;;5049333;28;20221;-74
2022/05/12 04:57:56;;;;;;;2.90;2.40;;;20.70;62.00;;;;;;5050283;28;20277;-74
2022/05/12 05:00:35;;;;;;;2.63;2.42;;;20.70;62.00;;;;;;5031367;28;20317;-74
2022/05/12 05:03:03;;;;;;;2.67;2.47;;;20.70;62.00;;;;;;5029516;28;20193;-74
2022/05/12 05:05:29;;;;;;;2.58;2.13;;;20.70;62.00;;;;;;5033866;28;20198;-74
2022/05/12 05:07:55;;;;;;;2.47;2.28;;;20.70;62.00;;;;;;5048556;28;20174;-74
2022/05/12 05:10:22;;;;;;;2.65;2.20;;;20.70;62.00;;;;;;5031716;28;20186;-74
2022/05/12 05:12:48;;;;;;;2.58;2.38;;;20.70;62.00;;;;;;5032090;28;20298;-74
2022/05/12 05:15:15;;;;;;;2.40;2.17;;;20.70;62.00;;;;;;5032461;28;20207;-74
2022/05/12 05:17:43;;;;;;;2.50;2.10;;;20.80;62.10;;;;;;5032318;28;20240;-74
2022/05/12 05:20:18;;;;;;;2.97;2.40;;;20.70;62.00;;;;;;5032985;28;20218;-74
2022/05/12 05:22:45;;;;;;;2.65;2.45;;;20.70;62.00;;;;;;5048612;28;20273;-74
2022/05/12 05:25:13;;;;;;;2.70;2.50;;;20.70;62.00;;;;;;5031809;28;20207;-74
2022/05/12 05:27:38;;;;;;;2.33;2.20;;;20.80;62.00;;;;;;5052486;28;20182;-74
2022/05/12 05:30:10;;;;;;;2.53;2.28;;;20.80;62.00;;;;;;5052879;28;20201;-74
2022/05/12 05:32:37;;;;;;;2.40;2.20;;;20.80;61.90;;;;;;5036463;28;20186;-74
2022/05/12 05:35:06;;;;;;;2.40;2.20;;;20.80;61.90;;;;;;5035295;28;20237;-74
2022/05/12 05:37:32;;;;;;;2.35;2.25;;;20.80;61.90;;;;;;5035832;28;20695;-74
2022/05/12 05:39:57;;;;;;;2.33;2.10;;;20.80;61.90;;;;;;5052752;28;20684;-74
2022/05/12 05:42:23;;;;;;;2.20;2.05;;;20.80;61.90;;;;;;5035746;28;20248;-74
2022/05/12 05:44:49;;;;;;;2.33;2.13;;;20.80;61.90;;;;;;5034783;28;20407;-74
2022/05/12 05:47:16;;;;;;;2.42;2.25;;;20.80;61.90;;;;;;5035799;28;20183;-72
2022/05/12 05:49:43;;;;;;;2.47;2.28;;;20.80;61.90;;;;;;5052772;28;20179;-72
2022/05/12 05:54:55;;;;;;;2.28;2.17;;;20.80;61.90;;;;;;5052054;28;20209;-71
2022/05/12 05:57:27;;;;;;;3.97;2.40;;;20.80;61.90;;;;;;5035475;28;20212;-71
2022/05/12 05:59:58;;;;;;;1.98;1.88;;;20.80;61.80;;;;;;5035864;28;20206;-71
2022/05/12 06:02:24;;;;;;;2.50;2.30;;;20.80;61.70;;;;;;5051854;28;20302;-71
2022/05/12 06:04:51;;;;;;;2.95;2.28;;;20.80;61.70;;;;;;5035015;28;20203;-71
2022/05/12 06:07:17;;;;;;;2.38;2.22;;;20.80;61.70;;;;;;5035499;28;20193;-72
2022/05/12 06:09:43;;;;;;;2.30;2.20;;;20.80;61.70;;;;;;5053219;28;20179;-71
2022/05/12 06:12:10;;;;;;;2.38;2.17;;;20.90;61.90;;;;;;5050935;28;20186;-71
2022/05/12 06:14:37;;;;;;;2.10;2.00;;;20.80;61.90;;;;;;5050737;28;20289;-71
2022/05/12 06:17:03;;;;;;;2.83;2.50;;;20.90;62.00;;;;;;5051540;28;20187;-71
2022/05/12 06:19:29;;;;;;;2.50;2.30;;;20.90;62.00;;;;;;5051983;28;20210;-71
2022/05/12 06:21:55;;;;;;;5.05;2.47;;;20.90;61.90;;;;;;5035217;28;20178;-71
2022/05/12 06:24:21;;;;;;;2.17;2.00;;;20.90;62.00;;;;;;5034888;28;20209;-71
2022/05/12 06:26:47;;;;;;;2.55;2.35;;;20.90;61.90;;;;;;5051601;28;20224;-71
2022/05/12 06:29:13;;;;;;;3.13;2.38;;;20.90;62.80;;;;;;5034597;28;20182;-71
2022/05/12 06:31:41;;;;;;;2.40;2.20;;;20.90;61.90;;;;;;5052222;28;20258;-71
2022/05/12 06:34:07;;;;;;;2.78;2.58;;;20.90;62.00;;;;;;5084750;22;20253;-73
2022/05/12 06:36:33;;;;;;;2.80;2.20;;;20.90;62.00;;;;;;5056732;28;20177;-73
2022/05/12 06:38:59;;;;;;;2.50;2.30;;;20.90;62.10;;;;;;5072838;28;20730;-73
2022/05/12 06:41:26;;;;;;;2.40;2.20;;;20.90;62.50;;;;;;5056912;28;20228;-74
2022/05/12 06:43:53;;;;;;;2.60;2.40;;;20.90;62.30;;;;;;5074445;28;20293;-73
2022/05/12 06:46:20;;;;;;;2.70;2.45;;;20.90;62.10;;;;;;5056905;28;20204;-73
2022/05/12 06:48:49;;;;;;;4.15;2.42;;;20.90;62.00;;;;;;5073475;28;20185;-73
2022/05/12 06:51:16;;;;;;;2.58;2.13;;;21.00;62.40;;;;;;5056437;28;20561;-74
2022/05/12 06:53:42;;;;;;;2.72;2.53;;;20.90;62.20;;;;;;5073178;28;20206;-73
2022/05/12 06:56:09;;;;;;;2.33;2.13;;;20.90;62.10;;;;;;5056835;28;20181;-73
2022/05/12 06:58:36;;;;;;;2.67;2.47;;;20.90;62.00;;;;;;5073382;28;20182;-73
2022/05/12 07:01:04;;;;;;;2.50;2.30;;;21.00;62.20;;;;;;5074451;28;20688;-74
2022/05/12 07:03:30;;;;;;;2.70;2.20;;;21.00;62.30;;;;;;5056625;28;20226;-74
2022/05/12 07:05:57;;;;;;;2.10;1.92;;;21.00;62.50;;;;;;5052812;28;20669;-73
2022/05/12 07:08:26;;;;;;;2.50;2.30;;;21.00;62.40;;;;;;5052962;28;20204;-73
2022/05/12 07:10:52;;;;;;;2.40;2.20;;;21.00;62.30;;;;;;5035733;28;20543;-73
2022/05/12 07:13:20;;;;;;;2.40;2.20;;;21.00;62.50;;;;;;5036084;28;20214;-72
2022/05/12 07:15:51;;;;;;;3.53;2.42;;;21.00;62.40;;;;;;5036076;28;20244;-73
2022/05/12 07:18:19;;;;;;;2.60;2.40;;;21.00;62.50;;;;;;5052698;28;20197;-73
2022/05/12 07:28:58;;;;;;;2.42;2.28;;;21.00;62.50;;;;;;5053678;28;20186;-73
2022/05/12 07:31:24;;;;;;;2.60;2.20;;;21.00;62.40;;;;;;5035957;28;20186;-73
2022/05/12 07:33:50;;;;;;;3.83;2.10;;;21.00;62.50;;;;;;5063126;28;20210;-72
2022/05/12 07:36:21;;;;;;;2.70;2.50;;;21.10;62.50;;;;;;5073828;28;20178;-73
2022/05/12 07:38:47;;;;;;;2.38;2.15;;;21.10;62.50;;;;;;5055811;28;20227;-73
2022/05/12 07:41:16;;;;;;;2.78;2.20;;;21.10;62.40;;;;;;5073499;28;20212;-73
2022/05/12 07:43:44;;;;;;;2.25;2.10;;;21.10;62.40;;;;;;5074002;28;20205;-73
2022/05/12 07:46:13;;;;;;;2.55;2.15;;;21.20;62.50;;;;;;5073837;28;20181;-73
2022/05/12 07:48:40;;;;;;;2.55;2.35;;;21.20;62.50;;;;;;5065064;28;20206;-73
2022/05/12 07:51:06;;;;;;;2.20;2.00;;;21.20;62.60;;;;;;5069182;28;20183;-73
2022/05/12 07:53:33;;;;;;;2.58;2.25;;;21.20;62.60;;;;;;5035640;28;20206;-73
2022/05/12 07:56:00;;;;;;;2.50;2.30;;;21.20;62.60;;;;;;5053126;28;20209;-73
2022/05/12 07:58:25;;;;;;;2.25;2.13;;;21.20;62.60;;;;;;5054164;28;20277;-74
2022/05/12 08:00:53;;;;;;;3.58;2.40;;;21.20;62.70;;;;;;5054802;28;20285;-73
2022/05/12 08:03:20;;;;;;;2.45;2.25;;;21.20;62.60;;;;;;5054582;28;20648;-73
2022/05/12 08:05:46;;;;;;;2.17;2.08;;;21.20;62.70;;;;;;5053261;28;20191;-74
2022/05/12 08:08:12;;;;;;;2.35;2.15;;;21.30;62.70;;;;;;5035987;28;20174;-73
2022/05/12 08:10:39;;;;;;;2.60;2.40;;;21.20;62.70;;;;;;5036416;28;20187;-73
2022/05/12 08:13:06;;;;;;;2.50;2.30;;;21.30;62.90;;;;;;5035800;28;20207;-73
2022/05/12 08:15:32;;;;;;;2.45;2.25;;;21.30;62.90;;;;;;5052684;28;20191;-73
2022/05/12 08:17:58;;;;;;;2.58;2.38;;;21.30;63.00;;;;;;5052942;28;20278;-73
2022/05/12 08:20:24;;;;;;;2.60;2.40;;;21.20;62.90;;;;;;5036034;28;20206;-73
2022/05/12 08:22:51;;;;;;;2.83;2.33;;;21.30;63.00;;;;;;5052077;28;20178;-73
2022/05/12 08:25:18;;;;;;;2.60;2.40;;;21.30;63.80;;;;;;5052341;28;20650;-73
2022/05/12 08:27:44;;;;;;;2.22;2.13;;;21.20;62.90;;;;;;5053686;28;20179;-73
2022/05/12 08:30:15;;;;;;;2.20;2.10;;;21.30;63.10;;;;;;5036506;28;20186;-73
2022/05/12 08:32:42;;;;;;;2.38;2.17;;;21.30;63.00;;;;;;5037348;28;20186;-73
2022/05/12 08:35:08;;;;;;;2.22;2.08;;;21.30;63.00;;;;;;5053120;28;20237;-73
2022/05/12 08:37:34;;;;;;;2.47;2.28;;;21.30;63.10;;;;;;5054890;28;20210;-73
2022/05/12 08:40:01;;;;;;;2.22;2.03;;;21.30;63.20;;;;;;5037303;28;20221;-74
2022/05/12 08:42:43;;;;;;;3.17;2.17;;;21.30;63.10;;;;;;5054458;28;20182;-74
2022/05/12 08:45:13;;;;;;;3.40;2.33;;;21.30;63.20;;;;;;5054332;28;20246;-73
2022/05/12 08:47:45;;;;;;;2.72;2.53;;;21.30;63.20;;;;;;5056780;28;20181;-73
2022/05/12 08:50:29;;;;;;;2.10;1.90;;;21.30;63.30;;;;;;5055585;28;20229;-73
2022/05/12 08:53:03;;;;;;;2.50;2.30;;;21.30;63.20;;;;;;5054924;28;20187;-73
2022/05/12 08:55:39;;;;;;;2.40;2.20;;;21.40;63.30;;;;;;5072362;28;20191;-73
2022/05/12 08:58:09;;;;;;;2.50;2.10;;;21.30;63.20;;;;;;5057369;28;20181;-74
2022/05/12 09:00:47;;;;;;;2.28;2.08;;;21.30;63.10;;;;;;5056018;28;20218;-73
2022/05/12 09:04:09;;;;;;;2.92;2.38;;;21.40;63.30;;;;;;5058890;28;20302;-72
2022/05/12 09:06:48;;;;;;;2.67;2.22;;;21.30;63.30;;;;;;5039501;28;20650;-72
2022/05/12 09:09:26;;;;;;;2.50;2.30;;;21.30;63.20;;;;;;5039880;28;20179;-73
2022/05/12 09:12:16;;;;;;;2.45;2.25;;;21.40;63.40;;;;;;5054776;28;20245;-73
2022/05/12 09:15:00;;;;;;;2.45;2.25;;;21.40;63.40;;;;;;5038162;28;20198;-73
2022/05/12 09:17:38;;;;;;;2.40;2.20;;;21.40;63.70;;;;;;5038816;28;20399;-73
2022/05/12 09:20:09;;;;;;;2.55;2.35;;;21.40;63.80;;;;;;5054591;28;20198;-73
2022/05/12 09:22:38;;;;;;;2.60;2.20;;;21.40;63.90;;;;;;5055713;28;20167;-73
2022/05/12 09:25:06;;;;;;;2.53;2.10;;;21.40;64.20;;;;;;5053877;28;20202;-73
2022/05/12 09:27:36;;;;;;;1.98;1.85;;;21.40;64.40;;;;;;5037922;28;20224;-73
2022/05/12 09:30:10;;;;;;;2.25;2.05;;;21.40;64.30;;;;;;5055258;28;20190;-73
2022/05/12 09:32:38;;;;;;;2.45;2.25;;;21.40;64.90;;;;;;5056065;28;20195;-73
2022/05/12 09:35:18;;;;;;;5.88;2.17;;;21.40;64.40;;;;;;5037899;28;20263;-72
2022/05/12 09:37:43;;;;;;;2.15;1.85;;;21.40;64.70;;;;;;5055292;28;20175;-73
2022/05/12 09:40:35;;;;;;;2.50;2.30;;;21.40;64.60;;;;;;5037974;28;20218;-73
2022/05/12 09:43:19;;;;;;;2.15;2.03;;;21.40;64.60;;;;;;5054275;28;20210;-73
2022/05/12 09:46:19;;;;;;;2.45;2.25;;;21.40;65.10;;;;;;5038361;28;20186;-73
2022/05/12 09:48:48;;;;;;;2.70;2.50;;;21.40;65.10;;;;;;5055818;28;20243;-74
2022/05/12 09:51:34;;;;;;;2.70;2.50;;;21.40;64.80;;;;;;5056567;28;20175;-73
2022/05/12 09:54:29;;;;;;;2.50;2.30;;;21.40;64.60;;;;;;5054686;28;20234;-73
2022/05/12 09:57:14;;;;;;;2.50;2.30;;;21.40;64.70;;;;;;5071819;28;20272;-73
2022/05/12 09:59:50;;;;;;;2.45;2.35;;;21.40;64.90;;;;;;5055841;28;20194;-74
2022/05/12 10:07:53;;;;;;;2.65;2.42;;;21.40;64.80;;;;;;5038510;28;20261;-74
2022/05/12 10:08:22;;;;;;;2.80;2.60;;;21.40;65.00;;;;;;5069894;28;20315;-72
2022/05/12 10:10:59;;;;;;;4.80;2.47;;;21.40;64.70;;;;;;5074011;28;20174;-73
2022/05/12 10:13:50;;;;;;;2.72;2.30;;;21.40;64.70;;;;;;5055254;28;20229;-73
2022/05/12 10:16:26;;;;;;;2.78;2.40;;;21.40;64.50;;;;;;5044829;28;20186;-73
2022/05/12 10:18:58;;;;;;;2.55;2.35;;;21.40;64.60;;;;;;5072918;28;20234;-73
2022/05/12 10:21:37;;;;;;;3.72;2.85;;;21.40;64.50;;;;;;5072338;28;20202;-73
2022/05/12 10:24:18;;;;;;;2.65;2.22;;;21.40;64.60;;;;;;5054582;28;20210;-73
2022/05/12 10:26:56;;;;;;;2.50;2.30;;;21.40;64.50;;;;;;5061748;28;20177;-73
2022/05/12 10:29:49;;;;;;;2.83;2.63;;;21.40;64.40;;;;;;5066164;28;20257;-73
2022/05/12 10:32:22;;;;;;;2.80;2.60;;;21.40;64.50;;;;;;5075100;28;20181;-73
2022/05/12 10:35:14;;;;;;;2.75;2.55;;;21.40;64.70;;;;;;5056149;28;20245;-73
2022/05/12 10:38:04;;;;;;;3.35;2.70;;;21.50;64.60;;;;;;5061954;28;20637;-73
2022/05/12 10:40:46;;;;;;;3.50;2.70;;;21.50;64.50;;;;;;5097866;28;20202;-73
2022/05/12 10:43:33;;;;;;;3.13;2.80;;;21.50;64.50;;;;;;5051273;28;20233;-73
2022/05/12 10:46:23;;;;;;;3.53;2.92;;;21.50;64.50;;;;;;5054483;28;20204;-73
2022/05/12 10:49:23;;;;;;;3.33;2.90;;;21.40;64.70;;;;;;5066361;28;20245;-73
2022/05/12 10:52:02;;;;;;;3.35;3.05;;;21.40;64.90;;;;;;5067826;28;20218;-73
2022/05/12 10:55:05;;;;;;;3.08;2.78;;;21.40;64.80;;;;;;5056098;28;20225;-73
2022/05/12 10:57:49;;;;;;;3.00;2.80;;;21.40;64.80;;;;;;5054795;28;20269;-73
2022/05/12 11:00:48;;;;;;;3.58;3.28;;;21.40;64.70;;;;;;5054927;28;20218;-74
2022/05/12 11:03:22;;;;;;;3.47;3.28;;;21.50;65.00;;;;;;5056715;28;20689;-73
2022/05/12 11:05:55;;;;;;;3.70;3.10;;;21.40;65.50;;;;;;5056149;28;20189;-73
2022/05/12 11:08:47;;;;;;;3.70;3.40;;;21.50;65.00;;;;;;5048465;28;20173;-73
2022/05/12 11:11:23;;;;;;;3.90;3.60;;;21.50;65.00;;;;;;5058823;28;20182;-72
2022/05/12 11:14:19;;;;;;;2.78;2.58;;;21.50;65.00;;;;;;5057709;28;20208;-73
2022/05/12 11:17:04;;;;;;;3.03;2.83;;;21.50;65.00;;;;;;5055760;28;20257;-73
2022/05/12 11:19:31;;;;;;;3.75;3.40;;;21.50;65.10;;;;;;5052884;28;20214;-73
2022/05/12 11:22:34;;;;;;;3.70;3.40;;;21.50;65.00;;;;;;5037786;28;20244;-73
2022/05/12 11:25:33;;;;;;;3.45;3.17;;;21.40;65.00;;;;;;5053719;28;20208;-73
2022/05/12 11:31:27;;;;;;;3.35;3.05;;;21.50;65.10;;;;;;5053846;28;20551;-73
2022/05/12 11:34:04;;;;;;;3.67;3.38;;;21.50;64.90;;;;;;5053109;28;20292;-72
2022/05/12 11:36:47;;;;;;;4.20;3.28;;;21.50;65.70;;;;;;5053318;28;20265;-73
2022/05/12 11:39:39;;;;;;;3.75;3.40;;;21.50;64.80;;;;;;5053057;28;20181;-73
2022/05/12 11:42:20;;;;;;;4.80;3.75;;;21.40;65.00;;;;;;5051794;28;20312;-73
2022/05/12 11:44:55;;;;;;;3.63;3.33;;;21.50;65.00;;;;;;5053467;28;20200;-73
2022/05/12 11:48:06;;;;;;;4.72;3.45;;;21.50;65.20;;;;;;5052200;28;20193;-73
2022/05/12 11:51:02;;;;;;;4.13;3.72;;;21.50;65.20;;;;;;5052520;28;20210;-73
2022/05/12 11:53:59;;;;;;;3.92;3.63;;;21.50;65.00;;;;;;5051297;28;20214;-72
2022/05/12 11:56:44;;;;;;;3.58;3.28;;;21.50;65.10;;;;;;5051548;28;20626;-73
2022/05/12 11:59:31;;;;;;;4.20;3.67;;;21.50;65.00;;;;;;5052575;28;20177;-73
2022/05/12 12:02:29;;;;;;;4.32;3.90;;;21.40;64.90;;;;;;5041112;28;20208;-73
2022/05/12 12:05:33;;;;;;;4.00;3.70;;;21.50;65.00;;;;;;5066795;28;20270;-73
2022/05/12 12:08:10;;;;;;;4.05;3.63;;;21.50;65.10;;;;;;5108541;28;20184;-73
2022/05/12 12:10:40;;;;;;;3.72;3.40;;;21.50;65.00;;;;;;5109160;28;20251;-73
2022/05/12 12:13:15;;;;;;;3.75;3.45;;;21.50;64.90;;;;;;5091648;28;20283;-73
2022/05/12 12:15:58;;;;;;;3.42;3.22;;;21.50;64.90;;;;;;5074563;28;20180;-72
2022/05/12 12:18:25;;;;;;;3.95;3.65;;;21.50;64.90;;;;;;5093457;28;20165;-73
2022/05/12 12:20:57;;;;;;;3.90;3.58;;;21.50;65.00;;;;;;5108185;28;20201;-73
2022/05/12 12:23:24;;;;;;;4.13;3.72;;;21.50;64.80;;;;;;5108104;28;20211;-73
2022/05/12 12:26:09;;;;;;;4.03;3.72;;;21.50;65.00;;;;;;5091328;28;20181;-73
2022/05/12 12:29:19;;;;;;;4.32;4.00;;;21.50;65.00;;;;;;5091844;28;20172;-73
2022/05/12 12:31:55;;;;;;;4.55;3.40;;;21.50;64.90;;;;;;5074864;28;20192;-73
2022/05/12 12:34:41;;;;;;;4.50;4.20;;;21.50;64.90;;;;;;5108748;28;20689;-72
2022/05/12 12:37:09;;;;;;;4.18;3.65;;;21.50;64.80;;;;;;5078353;28;20173;-73
2022/05/12 12:39:51;;;;;;;4.78;4.38;;;21.50;64.80;;;;;;5098255;28;20310;-73
2022/05/12 12:42:45;;;;;;;4.40;4.00;;;21.50;64.80;;;;;;5095410;28;20169;-73
2022/05/12 12:45:18;;;;;;;4.13;3.83;;;21.50;64.80;;;;;;5095267;28;20227;-72
2022/05/12 12:48:09;;;;;;;4.45;4.00;;;21.50;64.70;;;;;;5095293;28;20173;-72
2022/05/12 12:50:54;;;;;;;3.97;3.67;;;21.50;64.80;;;;;;5096018;28;20170;-73
2022/05/12 12:53:23;;;;;;;3.83;3.42;;;21.50;64.70;;;;;;5096301;28;20220;-73
2022/05/12 12:58:47;;;;;;;4.70;4.30;;;21.50;64.80;;;;;;5095465;28;20284;-73
2022/05/12 13:01:17;;;;;;;4.28;3.97;;;21.50;64.80;;;;;;5113364;28;20291;-72
2022/05/12 13:03:57;;;;;;;4.10;3.80;;;21.50;64.80;;;;;;5112883;28;20209;-74
2022/05/12 13:06:37;;;;;;;4.78;4.38;;;21.50;64.90;;;;;;5096104;28;20173;-73
2022/05/12 13:09:13;;;;;;;4.32;3.92;;;21.50;65.00;;;;;;5094793;28;20169;-73
2022/05/12 13:11:42;;;;;;;4.28;3.78;;;21.50;65.00;;;;;;5094774;28;20185;-73
2022/05/12 13:14:16;;;;;;;4.43;4.10;;;21.50;64.90;;;;;;5094402;28;20722;-73
2022/05/12 13:16:48;;;;;;;4.78;4.20;;;21.50;64.90;;;;;;5078662;28;20180;-73
2022/05/12 13:19:14;;;;;;;4.55;4.15;;;21.50;64.80;;;;;;5079079;28;20200;-73
2022/05/12 13:21:47;;;;;;;5.05;3.92;;;21.50;64.80;;;;;;5095444;28;20208;-73
2022/05/12 13:24:24;;;;;;;4.90;4.43;;;21.50;64.90;;;;;;5080125;28;20200;-73
2022/05/12 13:26:55;;;;;;;4.43;4.03;;;21.60;65.70;;;;;;5098557;28;20180;-74
2022/05/12 13:29:31;;;;;;;4.28;3.97;;;21.50;64.80;;;;;;5100206;28;20174;-73
2022/05/12 13:32:01;;;;;;;4.82;3.92;;;21.50;64.70;;;;;;5098461;28;20188;-72
2022/05/12 13:34:31;;;;;;;4.10;3.80;;;21.60;64.80;;;;;;5113470;28;20212;-73
2022/05/12 13:37:47;;;;;;;4.55;4.15;;;21.50;64.70;;;;;;5096482;28;20177;-73